createdAt,value
2017-12-23T00:01:42.790Z,25.73
2017-12-23T00:04:10.587Z,27.87
2017-12-23T00:06:38.322Z,24.70
2017-12-23T00:09:06.030Z,24.60
2017-12-23T00:11:33.707Z,27.80
2017-12-23T00:14:01.369Z,26.00
2017-12-23T00:18:56.870Z,28.67
2017-12-23T00:21:24.608Z,22.97
2017-12-23T00:23:52.297Z,24.33
2017-12-23T00:26:20.036Z,23.57
2017-12-23T00:28:47.733Z,23.70
2017-12-23T00:31:15.394Z,29.37
2017-12-23T00:33:43.023Z,28.47
2017-12-23T00:36:10.681Z,25.43
2017-12-23T00:38:38.303Z,33.73
2017-12-23T00:41:05.987Z,27.13
2017-12-23T00:43:33.617Z,25.70
2017-12-23T00:46:01.285Z,28.00
2017-12-23T00:48:28.983Z,23.33
2017-12-23T00:50:56.664Z,24.43
2017-12-23T00:53:24.355Z,25.87
2017-12-23T00:55:52.101Z,25.73
2017-12-23T00:58:19.787Z,24.60
2017-12-23T01:00:47.559Z,27.07
2017-12-23T01:03:15.226Z,24.33
2017-12-23T01:05:42.963Z,25.20
2017-12-23T01:08:10.645Z,23.60
2017-12-23T01:10:38.379Z,27.50
2017-12-23T01:13:05.997Z,23.03
2017-12-23T01:15:33.729Z,28.47
2017-12-23T01:18:01.400Z,21.80
2017-12-23T01:20:29.127Z,20.70
2017-12-23T01:22:56.751Z,25.20
2017-12-23T01:25:24.484Z,19.97
2017-12-23T01:27:52.176Z,22.83
2017-12-23T01:30:19.894Z,25.00
2017-12-23T01:32:47.573Z,21.50
2017-12-23T01:35:15.316Z,26.73
2017-12-23T01:37:42.992Z,22.47
2017-12-23T01:40:10.728Z,24.07
2017-12-23T01:42:38.408Z,23.47
2017-12-23T01:45:06.171Z,23.47
2017-12-23T01:47:33.854Z,23.77
2017-12-23T01:50:01.540Z,27.60
2017-12-23T01:52:29.208Z,27.00
2017-12-23T01:54:56.836Z,25.00
2017-12-23T01:57:24.567Z,22.43
2017-12-23T01:59:52.196Z,23.97
2017-12-23T02:02:19.968Z,25.03
2017-12-23T02:04:47.685Z,23.40
2017-12-23T02:07:15.399Z,22.80
2017-12-23T02:09:43.085Z,34.23
2017-12-23T02:12:10.827Z,29.60
2017-12-23T02:14:38.508Z,25.37
2017-12-23T02:17:06.184Z,24.50
2017-12-23T02:19:33.820Z,25.83
2017-12-23T02:22:01.482Z,27.60
2017-12-23T02:24:29.108Z,30.40
2017-12-23T02:26:56.789Z,29.33
2017-12-23T02:29:24.420Z,29.00
2017-12-23T02:31:52.093Z,29.73
2017-12-23T02:34:19.781Z,26.67
2017-12-23T02:36:47.519Z,25.10
2017-12-23T02:39:15.205Z,29.67
2017-12-23T02:41:42.886Z,32.33
2017-12-23T02:44:10.594Z,37.03
2017-12-23T02:46:38.263Z,27.53
2017-12-23T02:49:06.003Z,29.97
2017-12-23T02:51:33.726Z,24.37
2017-12-23T02:54:01.352Z,28.33
2017-12-23T02:56:29.083Z,30.50
2017-12-23T02:58:56.709Z,26.97
2017-12-23T03:01:24.488Z,24.43
2017-12-23T03:03:52.140Z,23.20
2017-12-23T03:06:19.898Z,27.40
2017-12-23T03:08:47.525Z,26.50
2017-12-23T03:11:15.256Z,25.60
2017-12-23T03:13:42.948Z,24.67
2017-12-23T03:16:10.678Z,28.47
2017-12-23T03:18:38.389Z,25.50
2017-12-23T03:21:06.105Z,27.43
2017-12-23T03:23:33.800Z,23.30
2017-12-23T03:26:01.416Z,25.40
2017-12-23T03:28:29.139Z,20.03
2017-12-23T03:30:56.804Z,27.80
2017-12-23T03:33:24.525Z,21.87
2017-12-23T03:35:52.147Z,24.00
2017-12-23T03:38:19.880Z,27.23
2017-12-23T03:40:47.570Z,24.90
2017-12-23T03:43:15.320Z,22.17
2017-12-23T03:45:43.010Z,26.43
2017-12-23T03:48:10.740Z,26.53
2017-12-23T03:50:38.358Z,30.17
2017-12-23T03:53:06.086Z,27.13
2017-12-23T03:55:33.773Z,27.90
2017-12-23T03:58:01.506Z,23.00
2017-12-23T04:00:29.194Z,28.20
2017-12-23T04:02:56.854Z,25.63
2017-12-23T04:05:24.537Z,25.73
2017-12-23T04:07:52.263Z,25.80
2017-12-23T04:10:19.947Z,17.93
2017-12-23T04:12:47.695Z,25.90
2017-12-23T04:15:15.324Z,26.73
2017-12-23T04:17:43.059Z,24.17
2017-12-23T04:20:10.763Z,26.40
2017-12-23T04:22:38.436Z,28.73
2017-12-23T04:25:06.131Z,41.60
2017-12-23T04:27:33.881Z,27.50
2017-12-23T04:30:01.518Z,25.50
2017-12-23T04:32:29.241Z,24.80
2017-12-23T04:34:56.870Z,25.57
2017-12-23T04:37:24.610Z,23.60
2017-12-23T04:39:52.239Z,26.30
2017-12-23T04:42:19.963Z,26.17
2017-12-23T04:44:47.648Z,26.20
2017-12-23T04:47:15.382Z,22.83
2017-12-23T04:49:43.107Z,18.63
2017-12-23T04:52:10.841Z,25.60
2017-12-23T04:54:38.540Z,27.37
2017-12-23T04:57:06.270Z,24.93
2017-12-23T04:59:33.954Z,27.20
2017-12-23T05:02:01.623Z,24.40
2017-12-23T05:04:29.299Z,25.77
2017-12-23T05:06:56.926Z,22.33
2017-12-23T05:09:24.660Z,23.87
2017-12-23T05:11:52.275Z,19.63
2017-12-23T05:14:20.019Z,22.73
2017-12-23T05:16:47.707Z,23.20
2017-12-23T05:19:15.459Z,19.97
2017-12-23T05:21:43.081Z,23.43
2017-12-23T05:24:10.811Z,15.80
2017-12-23T05:26:38.505Z,19.13
2017-12-23T05:29:06.234Z,21.07
2017-12-23T05:31:33.914Z,22.17
2017-12-23T05:34:01.585Z,21.03
2017-12-23T05:36:29.269Z,19.93
2017-12-23T05:38:56.937Z,20.83
2017-12-23T05:41:24.616Z,13.70
2017-12-23T05:43:52.288Z,19.37
2017-12-23T05:46:19.978Z,15.63
2017-12-23T05:48:47.695Z,16.80
2017-12-23T05:51:15.323Z,19.27
2017-12-23T05:53:43.000Z,20.60
2017-12-23T05:56:10.620Z,16.77
2017-12-23T05:58:38.395Z,22.20
2017-12-23T06:01:06.131Z,20.03
2017-12-23T06:03:33.869Z,20.27
2017-12-23T06:06:01.499Z,18.77
2017-12-23T06:08:29.229Z,22.70
2017-12-23T06:10:56.844Z,17.03
2017-12-23T06:13:24.564Z,21.47
2017-12-23T06:15:52.264Z,21.17
2017-12-23T06:18:20.008Z,16.87
2017-12-23T06:20:47.705Z,17.30
2017-12-23T06:23:15.441Z,15.37
2017-12-23T06:25:43.127Z,17.77
2017-12-23T06:28:10.799Z,18.47
2017-12-23T06:30:38.437Z,18.73
2017-12-23T06:33:06.183Z,17.80
2017-12-23T06:35:33.864Z,18.37
2017-12-23T06:38:01.591Z,24.20
2017-12-23T06:40:29.277Z,21.90
2017-12-23T06:42:57.003Z,18.87
2017-12-23T06:45:24.706Z,22.80
2017-12-23T06:47:52.411Z,17.57
2017-12-23T06:50:20.145Z,20.97
2017-12-23T06:52:47.834Z,21.50
2017-12-23T06:55:15.572Z,24.60
2017-12-23T06:57:43.277Z,23.30
2017-12-23T07:00:11.006Z,19.10
2017-12-23T07:02:38.743Z,22.57
2017-12-23T07:05:06.424Z,23.50
2017-12-23T07:07:34.044Z,23.00
2017-12-23T07:10:01.714Z,19.77
2017-12-23T07:12:29.406Z,20.23
2017-12-23T07:14:57.204Z,23.37
2017-12-23T07:17:24.892Z,18.40
2017-12-23T07:19:52.572Z,19.80
2017-12-23T07:22:20.258Z,23.33
2017-12-23T07:24:47.989Z,19.37
2017-12-23T07:27:15.676Z,18.30
2017-12-23T07:29:43.386Z,18.03
2017-12-23T07:32:11.089Z,16.07
2017-12-23T07:34:38.832Z,19.67
2017-12-23T07:37:06.516Z,18.80
2017-12-23T07:39:34.276Z,14.93
2017-12-23T07:42:01.967Z,17.07
2017-12-23T07:44:29.695Z,20.47
2017-12-23T07:46:57.439Z,18.33
2017-12-23T07:49:25.178Z,19.20
2017-12-23T07:51:52.871Z,19.50
2017-12-23T07:54:20.600Z,16.37
2017-12-23T07:56:48.298Z,20.20
2017-12-23T07:59:16.017Z,16.87
2017-12-23T08:01:43.758Z,17.67
2017-12-23T08:04:11.494Z,18.23
2017-12-23T08:06:39.198Z,17.77
2017-12-23T08:09:06.868Z,17.40
2017-12-23T08:11:34.555Z,13.40
2017-12-23T08:14:02.319Z,14.63
2017-12-23T08:16:29.940Z,13.17
2017-12-23T08:18:57.628Z,17.30
2017-12-23T08:21:25.340Z,17.03
2017-12-23T08:23:53.040Z,14.40
2017-12-23T08:26:20.723Z,16.27
2017-12-23T08:28:48.422Z,23.30
2017-12-23T08:31:16.174Z,30.50
2017-12-23T08:33:43.862Z,61.53
2017-12-23T08:36:11.625Z,55.03
2017-12-23T08:38:39.339Z,20.70
2017-12-23T08:41:07.024Z,34.73
2017-12-23T08:43:34.751Z,13.20
2017-12-23T08:46:02.548Z,20.07
2017-12-23T08:48:30.229Z,16.63
2017-12-23T08:50:57.967Z,12.83
2017-12-23T08:53:25.671Z,14.20
2017-12-23T08:55:53.399Z,16.43
2017-12-23T08:58:21.084Z,14.00
2017-12-23T09:00:48.825Z,16.43
2017-12-23T09:03:16.584Z,13.63
2017-12-23T09:05:44.266Z,15.10
2017-12-23T09:08:19.255Z,14.90
2017-12-23T09:10:46.927Z,20.63
2017-12-23T09:13:14.720Z,17.00
2017-12-23T09:15:42.419Z,19.50
2017-12-23T09:18:10.047Z,17.80
2017-12-23T09:20:37.785Z,18.70
2017-12-23T09:23:05.466Z,15.63
2017-12-23T09:25:33.143Z,14.03
2017-12-23T09:28:00.771Z,18.50
2017-12-23T09:30:28.447Z,16.30
2017-12-23T09:32:56.142Z,16.87
2017-12-23T09:35:23.885Z,16.77
2017-12-23T09:37:51.592Z,18.43
2017-12-23T09:40:19.327Z,16.43
2017-12-23T09:42:46.955Z,18.47
2017-12-23T09:45:14.623Z,16.00
2017-12-23T09:47:42.312Z,18.50
2017-12-23T09:50:10.029Z,16.80
2017-12-23T09:52:37.656Z,14.53
2017-12-23T09:55:05.380Z,15.30
2017-12-23T09:57:33.078Z,17.50
2017-12-23T10:00:00.760Z,23.20
2017-12-23T10:02:28.496Z,19.17
2017-12-23T10:04:56.279Z,18.20
2017-12-23T10:07:23.916Z,22.07
2017-12-23T10:09:51.589Z,14.67
2017-12-23T10:12:19.330Z,23.87
2017-12-23T10:14:47.023Z,29.50
2017-12-23T10:17:14.759Z,18.47
2017-12-23T10:19:44.680Z,25.63
2017-12-23T10:22:14.856Z,22.00
2017-12-23T10:24:43.264Z,21.60
2017-12-23T10:27:11.047Z,21.53
2017-12-23T10:29:38.677Z,21.00
2017-12-23T10:32:06.400Z,22.90
2017-12-23T10:34:34.022Z,22.10
2017-12-23T10:37:01.699Z,19.03
2017-12-23T10:39:29.332Z,20.60
2017-12-23T10:41:57.086Z,14.70
2017-12-23T10:44:24.766Z,19.93
2017-12-23T10:46:52.431Z,15.73
2017-12-23T10:49:20.125Z,17.53
2017-12-23T10:51:47.803Z,17.20
2017-12-23T10:54:15.503Z,20.77
2017-12-23T10:56:43.291Z,14.37
2017-12-23T10:59:10.971Z,19.30
2017-12-23T11:01:38.649Z,18.17
2017-12-23T11:04:06.270Z,16.27
2017-12-23T11:06:34.046Z,23.00
2017-12-23T11:09:01.733Z,19.23
2017-12-23T11:11:29.463Z,17.10
2017-12-23T11:13:57.147Z,12.33
2017-12-23T11:16:24.833Z,19.63
2017-12-23T11:18:52.477Z,22.33
2017-12-23T11:21:20.217Z,16.77
2017-12-23T11:23:47.832Z,19.97
2017-12-23T11:26:15.570Z,17.73
2017-12-23T11:28:43.185Z,22.13
2017-12-23T11:31:10.856Z,24.30
2017-12-23T11:33:38.485Z,24.53
2017-12-23T11:36:06.152Z,23.50
2017-12-23T11:38:33.910Z,24.20
2017-12-23T11:41:01.585Z,25.67
2017-12-23T11:43:29.223Z,22.70
2017-12-23T11:45:56.907Z,22.60
2017-12-23T11:48:24.600Z,20.47
2017-12-23T11:50:52.279Z,21.27
2017-12-23T11:53:19.907Z,18.63
2017-12-23T11:55:47.548Z,19.07
2017-12-23T11:58:15.340Z,18.30
2017-12-23T12:00:43.012Z,18.70
2017-12-23T12:03:10.700Z,23.00
2017-12-23T12:05:38.345Z,19.73
2017-12-23T12:08:06.009Z,20.30
2017-12-23T12:10:33.652Z,18.83
2017-12-23T12:13:01.324Z,18.50
2017-12-23T12:15:28.964Z,16.50
2017-12-23T12:17:56.701Z,16.73
2017-12-23T12:20:24.383Z,16.50
2017-12-23T12:22:52.049Z,16.30
2017-12-23T12:25:19.753Z,17.77
2017-12-23T12:27:47.477Z,17.80
2017-12-23T12:30:15.143Z,9.63
2017-12-23T12:32:42.875Z,16.73
2017-12-23T12:35:10.687Z,29.03
2017-12-23T12:37:38.427Z,11.40
2017-12-23T12:40:06.117Z,16.07
2017-12-23T12:42:33.859Z,18.07
2017-12-23T12:45:01.501Z,17.40
2017-12-23T12:47:29.189Z,12.97
2017-12-23T12:49:56.822Z,13.87
2017-12-23T12:52:24.508Z,12.83
2017-12-23T12:54:52.196Z,11.10
2017-12-23T12:57:19.880Z,12.83
2017-12-23T12:59:47.566Z,15.30
2017-12-23T13:02:15.260Z,10.30
2017-12-23T13:04:42.886Z,12.63
2017-12-23T13:07:10.642Z,14.43
2017-12-23T13:09:38.346Z,14.27
2017-12-23T13:12:06.012Z,14.10
2017-12-23T13:14:33.660Z,14.03
2017-12-23T13:17:01.332Z,15.13
2017-12-23T13:19:28.952Z,13.20
2017-12-23T13:21:56.650Z,15.57
2017-12-23T13:24:24.279Z,14.07
2017-12-23T13:26:52.009Z,13.07
2017-12-23T13:29:19.637Z,19.13
2017-12-23T13:31:47.338Z,15.33
2017-12-23T13:34:14.970Z,14.40
2017-12-23T13:36:42.603Z,16.80
2017-12-23T13:39:10.280Z,27.23
2017-12-23T13:41:37.929Z,20.77
2017-12-23T13:44:05.616Z,19.20
2017-12-23T13:46:33.256Z,15.57
2017-12-23T13:49:00.944Z,17.10
2017-12-23T13:51:28.572Z,18.40
2017-12-23T13:53:56.261Z,11.53
2017-12-23T13:56:23.950Z,17.63
2017-12-23T13:58:51.648Z,17.30
2017-12-23T14:01:19.383Z,13.50
2017-12-23T14:03:47.213Z,20.77
2017-12-23T14:06:14.921Z,18.93
2017-12-23T14:08:42.708Z,16.90
2017-12-23T14:11:10.404Z,17.00
2017-12-23T14:13:38.105Z,18.50
2017-12-23T14:16:05.745Z,18.30
2017-12-23T14:18:33.435Z,17.10
2017-12-23T14:21:01.052Z,15.40
2017-12-23T14:23:28.732Z,17.70
2017-12-23T14:25:56.421Z,17.43
2017-12-23T14:28:24.104Z,15.43
2017-12-23T14:30:51.791Z,16.63
2017-12-23T14:33:19.460Z,16.33
2017-12-23T14:35:47.108Z,16.80
2017-12-23T14:38:14.859Z,17.80
2017-12-23T14:40:42.512Z,16.30
2017-12-23T14:43:10.204Z,16.50
2017-12-23T14:45:37.882Z,20.03
2017-12-23T14:48:05.647Z,14.00
2017-12-23T14:50:33.272Z,17.90
2017-12-23T14:53:01.008Z,17.37
2017-12-23T14:55:28.642Z,11.90
2017-12-23T14:57:56.318Z,15.23
2017-12-23T15:00:23.978Z,16.60
2017-12-23T15:02:51.662Z,16.80
2017-12-23T15:05:19.306Z,15.20
2017-12-23T15:07:46.982Z,16.50
2017-12-23T15:10:14.671Z,20.00
2017-12-23T15:12:42.446Z,14.00
2017-12-23T15:15:10.168Z,16.27
2017-12-23T15:17:37.831Z,16.70
2017-12-23T15:20:05.501Z,18.47
2017-12-23T15:22:33.143Z,14.90
2017-12-23T15:25:00.932Z,18.33
2017-12-23T15:27:28.705Z,19.97
2017-12-23T15:29:56.388Z,17.60
2017-12-23T15:32:24.006Z,14.17
2017-12-23T15:34:51.685Z,32.07
2017-12-23T15:37:19.373Z,31.07
2017-12-23T15:39:47.136Z,34.80
2017-12-23T15:42:14.772Z,32.23
2017-12-23T15:44:42.502Z,31.80
2017-12-23T15:47:10.195Z,25.43
2017-12-23T15:49:37.959Z,24.43
2017-12-23T15:52:05.692Z,24.40
2017-12-23T15:54:33.432Z,24.17
2017-12-23T15:57:01.135Z,22.83
2017-12-23T15:59:28.858Z,31.27
2017-12-23T16:01:56.606Z,23.10
2017-12-23T16:04:24.376Z,22.93
2017-12-23T16:06:52.012Z,20.27
2017-12-23T16:09:19.740Z,20.93
2017-12-23T16:11:47.439Z,22.17
2017-12-23T16:14:15.188Z,18.67
2017-12-23T16:16:42.926Z,14.70
2017-12-23T16:19:10.663Z,20.57
2017-12-23T16:21:38.314Z,22.40
2017-12-23T16:24:06.068Z,23.37
2017-12-23T16:26:33.771Z,20.57
2017-12-23T16:29:01.520Z,23.37
2017-12-23T16:31:29.263Z,23.57
2017-12-23T16:33:57.075Z,23.23
2017-12-23T16:36:24.814Z,29.27
2017-12-23T16:38:52.587Z,21.20
2017-12-23T16:41:20.287Z,26.03
2017-12-23T16:43:48.034Z,29.30
2017-12-23T16:46:15.670Z,28.93
2017-12-23T16:48:43.453Z,28.97
2017-12-23T16:51:11.105Z,25.30
2017-12-23T16:53:38.792Z,24.23
2017-12-23T16:56:06.540Z,26.07
2017-12-23T16:58:34.280Z,24.80
2017-12-23T17:01:02.024Z,22.37
2017-12-23T17:03:29.657Z,22.40
2017-12-23T17:05:57.403Z,18.47
2017-12-23T17:08:25.090Z,21.10
2017-12-23T17:10:52.849Z,20.40
2017-12-23T17:13:20.469Z,19.27
2017-12-23T17:15:48.219Z,18.37
2017-12-23T17:18:15.928Z,19.77
2017-12-23T17:20:43.612Z,20.23
2017-12-23T17:23:11.236Z,49.47
2017-12-23T17:25:39.039Z,116.30
2017-12-23T17:28:21.684Z,82.37
2017-12-23T17:30:49.473Z,22.80
2017-12-23T17:33:17.182Z,20.30
2017-12-23T17:35:44.975Z,16.23
2017-12-23T17:38:12.663Z,18.03
2017-12-23T17:40:40.356Z,15.87
2017-12-23T17:43:08.110Z,17.37
2017-12-23T17:45:35.780Z,21.23
2017-12-23T17:48:03.409Z,15.00
2017-12-23T17:50:31.124Z,14.13
2017-12-23T17:52:58.819Z,17.23
2017-12-23T17:55:26.540Z,11.90
2017-12-23T17:57:54.236Z,13.30
2017-12-23T18:00:21.970Z,15.63
2017-12-23T18:02:49.678Z,12.50
2017-12-23T18:05:17.424Z,12.10
2017-12-23T18:07:45.105Z,16.33
2017-12-23T18:10:12.778Z,12.30
2017-12-23T18:12:40.509Z,12.33
2017-12-23T18:15:08.233Z,12.80
2017-12-23T18:17:35.858Z,16.23
2017-12-23T18:20:03.670Z,13.67
2017-12-23T18:22:31.360Z,12.50
2017-12-23T18:24:59.082Z,15.20
2017-12-23T18:27:26.758Z,14.40
2017-12-23T18:29:54.546Z,15.37
2017-12-23T18:32:22.323Z,13.00
2017-12-23T18:34:50.042Z,16.57
2017-12-23T18:37:17.703Z,14.30
2017-12-23T18:39:45.446Z,16.10
2017-12-23T18:42:13.152Z,11.17
2017-12-23T18:44:40.810Z,14.00
2017-12-23T18:47:08.536Z,13.50
2017-12-23T18:49:36.261Z,15.70
2017-12-23T18:52:03.989Z,15.37
2017-12-23T18:54:31.686Z,13.47
2017-12-23T18:56:59.406Z,15.80
2017-12-23T18:59:27.082Z,15.50
2017-12-23T19:01:54.915Z,10.30
2017-12-23T19:04:22.603Z,15.40
2017-12-23T19:06:50.394Z,15.53
2017-12-23T19:09:18.144Z,16.53
2017-12-23T19:11:45.882Z,17.47
2017-12-23T19:14:13.630Z,15.97
2017-12-23T19:16:53.288Z,15.90
2017-12-23T19:19:20.985Z,19.00
2017-12-23T19:21:48.665Z,20.40
2017-12-23T19:24:16.355Z,18.97
2017-12-23T19:26:44.139Z,17.53
2017-12-23T19:29:11.835Z,19.50
2017-12-23T19:31:39.570Z,17.27
2017-12-23T19:34:07.293Z,17.70
2017-12-23T19:36:35.069Z,18.00
2017-12-23T19:39:02.890Z,17.93
2017-12-23T19:41:30.679Z,19.60
2017-12-23T19:43:58.313Z,17.60
2017-12-23T19:46:26.028Z,16.63
2017-12-23T19:48:53.706Z,18.77
2017-12-23T19:51:21.483Z,21.23
2017-12-23T19:53:49.149Z,18.17
2017-12-23T19:56:16.871Z,18.37
2017-12-23T19:58:44.543Z,19.00
2017-12-23T20:01:12.267Z,15.10
2017-12-23T20:03:39.941Z,17.77
2017-12-23T20:06:07.674Z,66.63
2017-12-23T20:08:35.298Z,21.70
2017-12-23T20:11:03.037Z,20.70
2017-12-23T20:13:31.021Z,20.97
2017-12-23T20:15:59.259Z,19.30
2017-12-23T20:18:26.943Z,21.17
2017-12-23T20:20:54.834Z,19.60
2017-12-23T20:23:22.570Z,21.43
2017-12-23T20:25:50.308Z,20.17
2017-12-23T20:28:18.008Z,20.17
2017-12-23T20:30:45.741Z,22.50
2017-12-23T20:33:13.448Z,20.40
2017-12-23T20:35:41.216Z,20.27
2017-12-23T20:38:08.955Z,24.13
2017-12-23T20:40:36.647Z,25.13
2017-12-23T20:43:04.442Z,22.30
2017-12-23T20:45:32.123Z,24.43
2017-12-23T20:47:59.903Z,21.53
2017-12-23T20:50:27.662Z,22.60
2017-12-23T20:52:55.457Z,24.73
2017-12-23T20:55:23.165Z,22.63
2017-12-23T20:57:50.968Z,23.20
2017-12-23T21:00:18.768Z,20.67
2017-12-23T21:02:46.604Z,25.43
2017-12-23T21:05:14.356Z,21.47
2017-12-23T21:07:42.137Z,20.30
2017-12-23T21:10:09.867Z,21.17
2017-12-23T21:12:37.612Z,23.37
2017-12-23T21:15:05.294Z,25.27
2017-12-23T21:17:33.093Z,23.67
2017-12-23T21:20:00.736Z,23.70
2017-12-23T21:22:28.524Z,22.87
2017-12-23T21:24:56.268Z,25.90
2017-12-23T21:27:24.056Z,24.43
2017-12-23T21:29:51.801Z,25.00
2017-12-23T21:32:19.529Z,27.33
2017-12-23T21:34:47.277Z,24.70
2017-12-23T21:37:15.024Z,26.57
2017-12-23T21:39:42.764Z,30.13
2017-12-23T21:42:10.501Z,24.43
2017-12-23T21:44:38.256Z,24.00
2017-12-23T21:47:06.040Z,25.27
2017-12-23T21:49:33.796Z,26.60
2017-12-23T21:52:01.576Z,23.23
2017-12-23T21:54:29.330Z,24.63
2017-12-23T21:56:57.060Z,23.90
2017-12-23T21:59:24.744Z,25.03
2017-12-23T22:01:52.457Z,27.00
2017-12-23T22:04:20.135Z,24.43
2017-12-23T22:06:47.848Z,26.60
2017-12-23T22:09:17.319Z,24.27
2017-12-23T22:11:45.055Z,24.10
2017-12-23T22:14:12.796Z,23.80
2017-12-23T22:16:40.502Z,24.80
2017-12-23T22:19:08.186Z,23.20
2017-12-23T22:21:35.871Z,25.53
2017-12-23T22:24:03.595Z,25.23
2017-12-23T22:26:31.288Z,24.80
2017-12-23T22:28:59.068Z,25.23
2017-12-23T22:31:26.831Z,25.47
2017-12-23T22:33:54.615Z,25.33
2017-12-23T22:36:22.358Z,27.00
2017-12-23T22:38:50.123Z,23.90
2017-12-23T22:41:17.847Z,26.83
2017-12-23T22:43:45.645Z,23.73
2017-12-23T22:46:13.398Z,22.77
2017-12-23T22:48:41.131Z,22.40
2017-12-23T22:51:08.857Z,22.20
2017-12-23T22:53:36.698Z,23.47
2017-12-23T22:56:04.446Z,23.10
2017-12-23T22:58:32.200Z,19.97
2017-12-23T23:00:59.946Z,22.60
2017-12-23T23:03:27.771Z,22.90
2017-12-23T23:05:55.521Z,20.43
2017-12-23T23:08:23.300Z,22.77
2017-12-23T23:10:51.925Z,18.63
2017-12-23T23:13:19.676Z,21.03
2017-12-23T23:15:47.355Z,18.50
2017-12-23T23:18:15.133Z,23.63
2017-12-23T23:20:42.866Z,20.13
2017-12-23T23:23:10.682Z,26.40
2017-12-23T23:25:38.414Z,21.13
2017-12-23T23:28:06.135Z,20.40
2017-12-23T23:30:33.864Z,21.30
2017-12-23T23:33:01.585Z,21.40
2017-12-23T23:35:29.327Z,21.83
2017-12-23T23:37:57.064Z,21.03
2017-12-23T23:40:24.747Z,23.83
2017-12-23T23:42:52.523Z,24.70
2017-12-23T23:45:20.242Z,18.80
2017-12-23T23:47:47.919Z,23.27
2017-12-23T23:50:15.650Z,24.30
2017-12-23T23:52:43.390Z,20.63
2017-12-23T23:55:11.105Z,19.07
2017-12-23T23:57:38.769Z,23.43
